Time;durP1;ratioP1;P1;durP2;ratioP2;P2;SDS_P1;SDS_P2;PMS_P1;PMS_P2;Temp;Humidity;BMP_temperature;BMP_pressure;BME280_temperature;BME280_humidity;BME280_pressure;Samples;Min_cycle;Max_cycle;Signal;HPM_P1;HPM_P2
2022/08/20 00:01:50;;;;;;;4.50;1.93;;;;;;;19.55;94.66;156388.69;5013679;28;20438;-75
2022/08/20 00:04:17;;;;;;;2.80;1.97;;;;;;;19.53;92.95;156383.47;5045939;28;20451;-75
2022/08/20 00:06:44;;;;;;;2.47;1.90;;;;;;;19.49;94.39;156373.03;5007554;28;20561;-75
2022/08/20 00:09:12;;;;;;;2.20;2.00;;;;;;;19.47;96.60;156367.81;5014345;28;20964;-75
2022/08/20 00:11:39;;;;;;;1.60;1.30;;;;;;;19.43;96.68;156358.69;5016443;28;20461;-75
2022/08/20 00:14:07;;;;;;;4.43;2.20;;;;;;;19.39;94.34;156346.97;5051403;28;20465;-74
2022/08/20 00:16:36;;;;;;;2.53;1.70;;;;;;;19.38;97.39;156345.66;5026561;28;20439;-75
2022/08/20 00:19:04;;;;;;;1.87;1.77;;;;;;;19.37;94.16;156341.72;5013627;28;20439;-75
2022/08/20 00:21:31;;;;;;;3.83;2.00;;;;;;;19.34;94.84;156335.19;5011292;28;20433;-75
2022/08/20 00:23:58;;;;;;;2.20;1.97;;;;;;;19.32;94.02;156330.00;5015436;28;20855;-75
2022/08/20 00:26:26;;;;;;;4.73;1.80;;;;;;;19.30;94.42;156323.47;5031974;28;20570;-74
2022/08/20 00:28:54;;;;;;;1.90;1.63;;;;;;;19.28;96.61;156319.53;5014384;28;20460;-74
2022/08/20 00:31:22;;;;;;;2.00;1.80;;;;;;;19.25;95.77;156310.41;5038530;28;20528;-75
2022/08/20 00:33:49;;;;;;;3.83;1.70;;;;;;;19.21;97.09;156301.31;5018610;28;20458;-74
2022/08/20 00:36:16;;;;;;;2.00;1.70;;;;;;;19.15;97.04;156284.34;5014771;28;20468;-75
2022/08/20 00:38:45;;;;;;;2.80;1.53;;;;;;;19.14;96.70;156281.78;5013770;28;20479;-75
2022/08/20 00:41:15;;;;;;;1.67;1.40;;;;;;;19.16;95.90;156286.97;5015093;28;20466;-75
2022/08/20 00:43:45;;;;;;;2.10;1.90;;;;;;;19.14;97.31;156283.03;4993951;28;20452;-74
2022/08/20 00:46:14;;;;;;;2.03;1.70;;;;;;;19.13;96.19;156279.16;5002115;28;20501;-75
2022/08/20 00:48:43;;;;;;;3.53;1.83;;;;;;;19.13;97.21;156280.47;5013238;28;20447;-75
2022/08/20 00:51:15;;;;;;;3.00;1.40;;;;;;;19.07;96.40;156264.81;5035572;28;20557;-74
2022/08/20 00:53:42;;;;;;;2.20;1.90;;;;;;;19.08;97.91;156267.44;5009583;28;20530;-75
2022/08/20 00:56:10;;;;;;;2.47;1.97;;;;;;;19.07;97.56;156264.81;5011021;28;20449;-75
2022/08/20 00:58:38;;;;;;;2.70;1.53;;;;;;;19.08;97.32;156266.13;5010336;28;20538;-75
2022/08/20 01:01:08;;;;;;;1.93;1.60;;;;;;;19.08;96.16;156267.44;5012632;28;20557;-75
2022/08/20 01:03:34;;;;;;;2.00;1.53;;;;;;;19.10;96.40;156271.31;5049995;28;20458;-75
2022/08/20 01:06:01;;;;;;;1.93;1.70;;;;;;;19.12;98.22;156277.84;5005539;28;20962;-74
2022/08/20 01:08:28;;;;;;;2.10;1.90;;;;;;;19.09;96.67;156270.00;4976474;28;20468;-75
2022/08/20 01:11:07;;;;;;;1.93;1.63;;;;;;;19.11;97.57;156275.25;5019072;28;20551;-75
2022/08/20 01:13:37;;;;;;;2.20;1.97;;;;;;;19.11;97.69;156273.94;5012341;28;20443;-74
2022/08/20 01:16:05;;;;;;;5.47;1.70;;;;;;;19.12;96.30;156277.84;5031444;28;20486;-75
2022/08/20 01:18:33;;;;;;;2.00;1.67;;;;;;;19.14;97.33;156281.78;5050648;28;20860;-75
2022/08/20 01:21:02;;;;;;;2.70;1.80;;;;;;;19.13;96.40;156279.16;5031416;28;20459;-74
2022/08/20 01:23:37;;;;;;;1.57;1.47;;;;;;;19.17;96.87;156290.88;5023082;28;20537;-75
2022/08/20 01:26:08;;;;;;;2.63;1.77;;;;;;;19.17;97.95;156289.53;5041717;28;20466;-75
2022/08/20 01:28:39;;;;;;;1.87;1.33;;;;;;;19.14;97.48;156283.03;5056407;28;20445;-75
2022/08/20 01:31:08;;;;;;;1.90;1.60;;;;;;;19.13;96.92;156280.47;5040239;28;20892;-75
2022/08/20 01:33:36;;;;;;;2.17;1.70;;;;;;;19.13;98.49;156279.16;5036629;28;20454;-74
2022/08/20 01:36:03;;;;;;;1.70;1.60;;;;;;;19.10;98.15;156272.63;5035383;28;20977;-75
2022/08/20 01:38:30;;;;;;;2.70;1.47;;;;;;;19.07;99.95;156264.81;5017274;28;20478;-74
2022/08/20 01:41:20;;;;;;;2.00;1.80;;;;;;;19.06;99.32;156262.19;5001962;28;20470;-75
2022/08/20 01:43:48;;;;;;;1.87;1.67;;;;;;;19.07;97.24;156264.81;5032153;28;20460;-74
2022/08/20 01:46:16;;;;;;;1.80;1.50;;;;;;;19.11;96.84;156273.94;5038929;28;21067;-75
2022/08/20 01:48:43;;;;;;;2.30;1.53;;;;;;;19.13;96.84;156279.16;5057155;28;20478;-75
2022/08/20 01:51:14;;;;;;;3.30;1.60;;;;;;;19.17;98.11;156290.88;5034610;28;20990;-75
2022/08/20 01:53:44;;;;;;;5.37;1.70;;;;;;;19.18;97.10;156293.50;5033340;28;20961;-75
2022/08/20 01:56:14;;;;;;;1.60;1.50;;;;;;;19.18;96.74;156292.19;5019239;28;20859;-75
2022/08/20 01:58:45;;;;;;;2.97;1.70;;;;;;;19.18;96.94;156293.50;5018379;28;20451;-75
2022/08/20 02:01:20;;;;;;;1.93;1.60;;;;;;;19.17;99.10;156290.88;5036809;28;20451;-75
2022/08/20 02:03:47;;;;;;;2.93;1.60;;;;;;;19.12;98.73;156277.84;5044692;28;20945;-75
2022/08/20 02:06:14;;;;;;;6.93;2.03;;;;;;;19.11;98.38;156273.94;5036178;28;20467;-75
2022/08/20 02:08:41;;;;;;;2.30;1.87;;;;;;;19.12;98.42;156276.53;5018822;28;20447;-75
2022/08/20 02:11:08;;;;;;;2.23;1.60;;;;;;;19.13;98.64;156280.47;5042315;28;20532;-74
2022/08/20 02:13:35;;;;;;;2.33;1.70;;;;;;;19.16;97.76;156286.97;5036664;28;20465;-74
2022/08/20 02:16:04;;;;;;;1.93;1.73;;;;;;;19.15;98.21;156285.66;5030631;28;20475;-75
2022/08/20 02:18:31;;;;;;;2.33;1.67;;;;;;;19.14;100.00;156281.78;5019932;28;20509;-75
2022/08/20 02:20:58;;;;;;;1.77;1.50;;;;;;;19.12;99.97;156277.84;5046967;28;20508;-75
2022/08/20 02:23:25;;;;;;;2.57;1.93;;;;;;;19.10;97.63;156272.63;5056007;28;20430;-74
2022/08/20 02:25:52;;;;;;;2.10;1.87;;;;;;;19.10;98.40;156272.63;5022039;28;20438;-74
2022/08/20 02:28:20;;;;;;;2.50;1.80;;;;;;;19.09;97.42;156268.75;5037617;28;20845;-75
2022/08/20 02:30:52;;;;;;;1.70;1.50;;;;;;;19.08;99.10;156267.44;5035378;28;20497;-75
2022/08/20 02:33:21;;;;;;;2.20;1.93;;;;;;;19.10;98.85;156272.63;5032834;28;20494;-76
2022/08/20 02:35:49;;;;;;;2.73;2.20;;;;;;;19.09;98.03;156270.00;5033051;28;20440;-75
2022/08/20 02:38:16;;;;;;;1.90;1.70;;;;;;;19.06;99.85;156262.19;5015229;28;20433;-75
2022/08/20 02:40:44;;;;;;;1.83;1.57;;;;;;;19.04;97.85;156256.97;4995581;28;20929;-74
2022/08/20 02:43:11;;;;;;;2.00;1.70;;;;;;;19.05;98.79;156258.28;5011646;28;20589;-75
2022/08/20 02:45:42;;;;;;;3.73;1.93;;;;;;;19.04;99.15;156256.97;5034095;28;20455;-75
2022/08/20 02:48:19;;;;;;;2.57;1.90;;;;;;;18.99;100.00;156243.97;5036073;28;20467;-75
2022/08/20 02:50:49;;;;;;;2.80;1.80;;;;;;;18.99;100.00;156243.97;5012260;28;20563;-75
2022/08/20 02:53:16;;;;;;;2.00;1.80;;;;;;;19.00;99.39;156245.28;5033423;28;20454;-75
2022/08/20 02:55:43;;;;;;;3.90;2.17;;;;;;;19.00;100.00;156245.28;5015462;28;21024;-74
2022/08/20 02:58:10;;;;;;;2.00;1.77;;;;;;;18.99;100.00;156243.97;5033348;28;20825;-75
2022/08/20 03:00:37;;;;;;;2.60;1.60;;;;;;;19.00;100.00;156245.28;5032008;28;20472;-75
2022/08/20 03:03:04;;;;;;;2.00;1.80;;;;;;;19.00;98.89;156246.59;5032289;28;20477;-75
2022/08/20 03:05:30;;;;;;;2.20;1.70;;;;;;;19.02;100.00;156251.78;5012683;28;20540;-75
2022/08/20 03:07:58;;;;;;;2.23;2.03;;;;;;;18.98;98.32;156241.38;4996088;28;20521;-75
2022/08/20 03:10:28;;;;;;;2.20;2.00;;;;;;;19.01;98.21;156247.91;5041304;28;20451;-74
2022/08/20 03:12:54;;;;;;;2.20;2.00;;;;;;;19.00;98.25;156246.59;5034891;28;20542;-75
2022/08/20 03:15:21;;;;;;;2.30;2.10;;;;;;;19.00;98.93;156245.28;5053026;28;20438;-75
2022/08/20 03:17:48;;;;;;;2.10;1.90;;;;;;;18.98;100.00;156241.38;5053033;28;20855;-74
2022/08/20 03:20:15;;;;;;;2.17;1.97;;;;;;;18.94;99.35;156230.94;5018575;28;20531;-75
2022/08/20 03:22:42;;;;;;;2.40;2.20;;;;;;;18.91;100.00;156223.09;5032956;28;20489;-74
2022/08/20 03:25:11;;;;;;;2.00;1.80;;;;;;;18.91;99.47;156223.09;5014553;28;20807;-74
2022/08/20 03:27:38;;;;;;;3.00;2.47;;;;;;;18.89;99.50;156217.91;5022159;28;20501;-75
2022/08/20 03:30:07;;;;;;;2.57;1.87;;;;;;;18.84;100.00;156206.19;5026257;28;20845;-75
2022/08/20 03:32:34;;;;;;;2.50;2.30;;;;;;;18.81;100.00;156197.06;5034335;28;20438;-75
2022/08/20 03:35:01;;;;;;;2.43;2.23;;;;;;;18.79;100.00;156191.84;5051828;28;21029;-75
2022/08/20 03:37:30;;;;;;;2.07;1.80;;;;;;;18.78;100.00;156189.22;5028287;28;20440;-75
2022/08/20 03:39:56;;;;;;;2.50;2.30;;;;;;;18.75;100.00;156181.41;5020084;28;20546;-75
2022/08/20 03:42:25;;;;;;;2.87;2.67;;;;;;;18.74;100.00;156180.09;5020867;28;20541;-75
2022/08/20 03:44:52;;;;;;;2.50;2.30;;;;;;;18.73;100.00;156176.22;5033146;28;20478;-75
2022/08/20 03:47:18;;;;;;;3.23;2.57;;;;;;;18.74;100.00;156178.84;5032792;28;20463;-75
2022/08/20 03:49:45;;;;;;;2.83;2.63;;;;;;;18.71;100.00;156171.00;5029586;28;20459;-74
2022/08/20 03:52:12;;;;;;;3.17;2.90;;;;;;;18.69;100.00;156165.81;5014001;28;20928;-74
2022/08/20 03:54:39;;;;;;;3.30;2.80;;;;;;;18.67;100.00;156161.88;5014755;28;20474;-75
2022/08/20 03:57:06;;;;;;;2.83;2.63;;;;;;;18.69;100.00;156165.81;5013710;28;20444;-75
2022/08/20 03:59:34;;;;;;;2.83;2.63;;;;;;;18.68;100.00;156164.50;5023765;28;20495;-74
2022/08/20 04:02:01;;;;;;;4.30;3.10;;;;;;;18.69;100.00;156167.06;5049735;28;20441;-75
2022/08/20 04:04:27;;;;;;;2.80;2.60;;;;;;;18.69;100.00;156167.06;5012602;28;20441;-74
2022/08/20 04:06:54;;;;;;;3.13;2.90;;;;;;;18.69;100.00;156165.81;5003437;28;20463;-74
2022/08/20 04:09:21;;;;;;;2.87;2.67;;;;;;;18.65;100.00;156155.38;5032015;28;20440;-75
2022/08/20 04:11:48;;;;;;;4.30;3.30;;;;;;;18.67;100.00;156160.56;5050193;28;20477;-75
2022/08/20 04:14:15;;;;;;;5.43;3.27;;;;;;;18.65;100.00;156155.38;5051653;28;20488;-74
2022/08/20 04:16:44;;;;;;;3.43;3.13;;;;;;;18.63;100.00;156150.16;5033897;28;20451;-74
2022/08/20 04:19:11;;;;;;;3.30;3.00;;;;;;;18.62;100.00;156147.53;5028652;28;20446;-75
2022/08/20 04:21:38;;;;;;;3.33;3.03;;;;;;;18.62;100.00;156147.53;5033709;28;21011;-75
2022/08/20 04:24:05;;;;;;;3.40;3.10;;;;;;;18.62;100.00;156147.53;5034179;28;20470;-74
2022/08/20 04:26:33;;;;;;;3.67;3.17;;;;;;;18.60;100.00;156142.34;5031213;28;20494;-75
2022/08/20 04:28:59;;;;;;;3.17;2.87;;;;;;;18.57;100.00;156134.53;5013724;28;20475;-75
2022/08/20 04:31:31;;;;;;;4.43;3.10;;;;;;;18.57;100.00;156134.53;5030550;28;20891;-75
2022/08/20 04:34:00;;;;;;;3.80;3.50;;;;;;;18.57;100.00;156134.53;5031353;28;20446;-74
2022/08/20 04:36:26;;;;;;;3.70;3.40;;;;;;;18.59;100.00;156139.72;5011853;28;20465;-75
2022/08/20 04:38:53;;;;;;;4.00;3.60;;;;;;;18.59;100.00;156139.72;5050525;28;20463;-75
2022/08/20 04:41:20;;;;;;;4.00;3.70;;;;;;;18.61;100.00;156144.97;5033356;28;20539;-75
2022/08/20 04:43:46;;;;;;;4.23;3.93;;;;;;;18.61;100.00;156144.97;5032769;28;20459;-74
2022/08/20 04:46:13;;;;;;;4.97;4.47;;;;;;;18.62;100.00;156147.53;5050008;28;20937;-75
2022/08/20 04:48:40;;;;;;;4.10;3.80;;;;;;;18.69;100.00;156165.81;5042473;28;20995;-75
2022/08/20 04:51:13;;;;;;;4.50;4.10;;;;;;;18.70;100.00;156168.38;4996375;28;20436;-75
2022/08/20 04:53:41;;;;;;;4.57;4.17;;;;;;;18.73;100.00;156176.22;5013147;28;20525;-75
2022/08/20 04:56:10;;;;;;;4.40;4.10;;;;;;;18.73;100.00;156176.22;5014715;28;20524;-75
2022/08/20 04:58:38;;;;;;;4.33;3.93;;;;;;;18.73;100.00;156177.53;5032705;28;20439;-75
2022/08/20 05:01:07;;;;;;;4.83;4.27;;;;;;;18.74;100.00;156178.84;5048962;28;20442;-75
2022/08/20 05:03:34;;;;;;;4.80;4.40;;;;;;;18.75;100.00;156182.72;5012694;28;20945;-75
2022/08/20 05:06:01;;;;;;;4.77;4.30;;;;;;;18.77;100.00;156186.66;5030709;28;20534;-74
2022/08/20 05:08:29;;;;;;;5.03;4.63;;;;;;;18.80;100.00;156194.44;5017293;28;20518;-75
2022/08/20 05:10:57;;;;;;;4.70;4.30;;;;;;;18.77;100.00;156187.91;5013130;28;20546;-75
2022/08/20 05:13:24;;;;;;;6.40;4.30;;;;;;;18.78;100.00;156189.22;5013269;28;20471;-75
2022/08/20 05:15:51;;;;;;;5.20;4.80;;;;;;;18.80;100.00;156194.44;5022622;28;20453;-74
2022/08/20 05:18:19;;;;;;;5.17;4.67;;;;;;;18.79;100.00;156191.84;5032112;28;20478;-75
2022/08/20 05:20:47;;;;;;;5.80;5.20;;;;;;;18.81;100.00;156197.06;5032020;28;20434;-75
2022/08/20 05:23:15;;;;;;;5.50;5.10;;;;;;;18.81;100.00;156198.38;5028737;28;20467;-75
2022/08/20 05:25:46;;;;;;;4.30;4.00;;;;;;;18.79;100.00;156191.84;5014687;28;20450;-75
2022/08/20 05:28:17;;;;;;;4.77;4.37;;;;;;;18.80;100.00;156194.44;5050996;28;20454;-75
2022/08/20 05:30:46;;;;;;;5.23;4.83;;;;;;;18.81;100.00;156198.38;5050755;28;20412;-75
2022/08/20 05:33:15;;;;;;;5.47;4.97;;;;;;;18.80;100.00;156195.75;5032809;28;20965;-75
2022/08/20 05:35:42;;;;;;;5.00;4.50;;;;;;;18.78;100.00;156189.22;5012842;28;20443;-75
2022/08/20 05:38:14;;;;;;;5.10;4.70;;;;;;;18.77;100.00;156187.91;5030826;28;20512;-74
2022/08/20 05:40:42;;;;;;;5.30;4.80;;;;;;;18.75;100.00;156181.41;5010931;28;20522;-74
2022/08/20 05:43:10;;;;;;;5.00;4.60;;;;;;;18.72;100.00;156174.91;4996822;28;20535;-74
2022/08/20 05:45:38;;;;;;;5.00;4.60;;;;;;;18.71;100.00;156172.31;5026564;28;20477;-74
2022/08/20 05:48:05;;;;;;;5.20;4.80;;;;;;;18.71;100.00;156172.31;5050636;28;20562;-74
2022/08/20 05:50:32;;;;;;;5.30;4.80;;;;;;;18.72;100.00;156173.59;5013154;28;20428;-74
2022/08/20 05:53:00;;;;;;;4.80;4.40;;;;;;;18.72;100.00;156173.59;5033827;28;20458;-74
2022/08/20 05:55:27;;;;;;;5.10;4.70;;;;;;;18.72;100.00;156173.59;5049881;28;20477;-74
2022/08/20 05:57:57;;;;;;;5.47;4.97;;;;;;;18.74;100.00;156180.09;5016361;28;20498;-74
2022/08/20 06:00:25;;;;;;;5.17;4.67;;;;;;;18.78;100.00;156189.22;5030935;28;20456;-83
2022/08/20 06:05:36;;;;;;;4.93;4.53;;;;;;;18.83;100.00;156202.25;5031515;28;20453;-84
2022/08/20 06:08:04;;;;;;;5.17;4.77;;;;;;;18.88;100.00;156215.28;5049260;28;20485;-84
2022/08/20 06:10:31;;;;;;;5.17;4.77;;;;;;;18.91;100.00;156221.78;5053357;28;20446;-84
2022/08/20 06:12:58;;;;;;;5.93;5.43;;;;;;;18.94;100.00;156230.94;5041239;28;20455;-83
2022/08/20 06:15:26;;;;;;;5.33;4.83;;;;;;;19.00;100.00;156245.28;5033866;28;20455;-84
2022/08/20 06:17:53;;;;;;;5.80;5.30;;;;;;;19.07;100.00;156264.81;5032075;28;20551;-84
2022/08/20 06:20:19;;;;;;;6.07;5.57;;;;;;;19.13;100.00;156280.47;5015791;28;20866;-84
2022/08/20 06:22:46;;;;;;;5.23;4.83;;;;;;;19.22;100.00;156302.63;5018997;28;20522;-84
2022/08/20 06:25:13;;;;;;;5.57;5.07;;;;;;;19.29;100.00;156320.84;5054778;28;20473;-84
2022/08/20 06:27:43;;;;;;;6.37;5.77;;;;;;;19.37;100.00;156343.06;5053479;28;20477;-84
2022/08/20 06:30:13;;;;;;;6.10;5.50;;;;;;;19.46;100.00;156363.94;5035276;28;20542;-84
2022/08/20 06:32:41;;;;;;;5.67;5.27;;;;;;;19.51;100.00;156376.97;5029671;28;20445;-84
2022/08/20 06:35:10;;;;;;;5.30;4.90;;;;;;;19.54;100.00;156386.06;5004098;28;20460;-84
2022/08/20 06:37:39;;;;;;;5.57;5.07;;;;;;;19.59;100.00;156399.09;5013750;28;20439;-84
2022/08/20 06:40:09;;;;;;;5.97;5.47;;;;;;;19.64;100.00;156410.84;4996254;28;20459;-84
2022/08/20 06:42:42;;;;;;;6.80;5.33;;;;;;;19.66;100.00;156416.06;5008585;28;20542;-84
2022/08/20 06:45:10;;;;;;;5.40;5.00;;;;;;;19.68;100.00;156421.25;5016247;28;20459;-84
2022/08/20 06:47:41;;;;;;;5.37;4.97;;;;;;;19.72;100.00;156431.72;5050042;28;20436;-84
2022/08/20 06:50:09;;;;;;;5.07;4.67;;;;;;;19.74;100.00;156438.22;5032149;28;21196;-84
2022/08/20 06:52:38;;;;;;;4.87;4.37;;;;;;;19.77;100.00;156444.75;5015110;28;20447;-84
2022/08/20 06:55:06;;;;;;;5.07;4.67;;;;;;;19.80;100.00;156452.59;5033090;28;20541;-84
2022/08/20 06:57:33;;;;;;;5.53;5.03;;;;;;;19.84;100.00;156463.00;5015628;28;20443;-84
2022/08/20 07:00:00;;;;;;;5.27;4.77;;;;;;;19.88;100.00;156473.44;5018702;28;20443;-84
2022/08/20 07:02:26;;;;;;;5.27;4.70;;;;;;;19.90;100.00;156479.97;5047102;28;20478;-84
2022/08/20 07:04:55;;;;;;;5.00;4.53;;;;;;;19.96;100.00;156494.31;5035000;28;20549;-84
2022/08/20 07:07:21;;;;;;;5.03;4.63;;;;;;;20.01;100.00;156507.34;5001565;28;20455;-83
2022/08/20 07:09:48;;;;;;;4.77;4.03;;;;;;;20.06;100.00;156520.38;5045750;28;20483;-84
2022/08/20 07:12:15;;;;;;;5.57;4.30;;;;;;;20.11;98.84;156532.09;5011468;28;20447;-74
2022/08/20 07:14:42;;;;;;;5.00;4.53;;;;;;;20.18;99.71;156551.66;5013510;28;20855;-75
2022/08/20 07:17:08;;;;;;;5.10;4.70;;;;;;;20.18;97.65;156550.34;5002532;28;20480;-75
2022/08/20 07:19:36;;;;;;;4.77;4.17;;;;;;;20.21;98.77;156558.19;5014474;28;20554;-74
2022/08/20 07:22:04;;;;;;;4.07;3.70;;;;;;;20.23;97.93;156564.69;5010967;28;20451;-75
2022/08/20 07:24:31;;;;;;;4.17;3.77;;;;;;;20.24;97.26;156567.38;5015607;28;20460;-75
2022/08/20 07:26:59;;;;;;;5.23;4.57;;;;;;;20.25;98.48;156570.00;5015675;28;20467;-75
2022/08/20 07:32:33;;;;;;;4.50;4.10;;;;;;;20.26;97.76;156572.56;5024101;28;20536;-75
2022/08/20 07:34:57;;;;;;;4.63;4.10;;;;;;;20.32;97.55;156588.25;5048993;28;20795;-75
2022/08/20 07:37:25;;;;;;;4.60;4.20;;;;;;;20.34;98.27;156593.44;5052459;28;20431;-76
2022/08/20 07:39:52;;;;;;;3.83;3.53;;;;;;;20.36;98.90;156598.66;5006035;28;20467;-75
2022/08/20 07:42:19;;;;;;;4.57;4.17;;;;;;;20.36;98.22;156598.66;5010469;28;20506;-76
2022/08/20 07:44:46;;;;;;;4.70;4.30;;;;;;;20.37;96.72;156601.28;5022917;28;20480;-76
2022/08/20 07:47:13;;;;;;;5.00;4.60;;;;;;;20.43;97.23;156616.94;5009722;28;20468;-76
2022/08/20 07:49:40;;;;;;;5.13;4.63;;;;;;;20.49;97.22;156632.56;5012648;28;20487;-75
2022/08/20 07:52:07;;;;;;;4.80;4.40;;;;;;;20.50;95.78;156635.19;5009172;28;20970;-76
2022/08/20 07:54:36;;;;;;;4.77;4.37;;;;;;;20.60;97.63;156659.94;5024787;28;20566;-75
2022/08/20 07:57:03;;;;;;;4.80;4.40;;;;;;;20.72;95.97;156689.97;5013966;28;20499;-75
2022/08/20 07:59:31;;;;;;;4.53;4.13;;;;;;;20.81;96.28;156713.47;5032917;28;20559;-75
2022/08/20 08:01:58;;;;;;;6.73;4.03;;;;;;;20.97;95.34;156755.25;4994373;28;20452;-75
2022/08/20 08:04:25;;;;;;;4.43;4.03;;;;;;;21.11;95.30;156791.81;4995084;28;20460;-76
2022/08/20 08:06:52;;;;;;;4.90;4.50;;;;;;;21.26;94.63;156829.66;5019921;28;20527;-76
2022/08/20 08:09:19;;;;;;;4.43;4.03;;;;;;;21.33;92.39;156849.25;5032624;28;20484;-75
2022/08/20 08:11:49;;;;;;;4.63;4.23;;;;;;;21.42;92.18;156871.44;5013420;28;20864;-75
2022/08/20 08:14:17;;;;;;;4.43;4.03;;;;;;;21.49;91.34;156891.03;5031109;28;20502;-75
2022/08/20 08:16:44;;;;;;;5.10;4.63;;;;;;;21.46;91.32;156883.19;5013830;28;20451;-75
2022/08/20 08:19:13;;;;;;;4.63;4.23;;;;;;;21.49;89.84;156889.69;5035807;28;20543;-76
2022/08/20 08:21:41;;;;;;;4.30;3.90;;;;;;;21.52;88.90;156898.84;5023155;28;20463;-76
2022/08/20 08:24:07;;;;;;;4.50;4.10;;;;;;;21.58;90.59;156913.16;5020870;28;20459;-76
2022/08/20 08:26:34;;;;;;;4.63;4.23;;;;;;;21.71;89.37;156947.16;5050380;28;20777;-75
2022/08/20 08:29:06;;;;;;;4.40;4.10;;;;;;;21.80;88.12;156970.63;5032813;28;20573;-76
2022/08/20 08:31:32;;;;;;;4.50;4.10;;;;;;;22.09;88.85;157046.41;5049890;28;20427;-75
2022/08/20 08:33:59;;;;;;;4.27;3.93;;;;;;;22.34;86.77;157110.44;5016314;28;20451;-75
2022/08/20 08:36:26;;;;;;;4.30;4.00;;;;;;;22.56;86.18;157166.59;5032170;28;20459;-76
2022/08/20 08:38:55;;;;;;;4.50;4.10;;;;;;;22.74;84.73;157214.94;5051585;28;20435;-75
2022/08/20 08:41:28;;;;;;;4.53;4.13;;;;;;;22.92;83.80;157262.03;5032104;28;20530;-76
2022/08/20 08:43:59;;;;;;;4.10;3.80;;;;;;;22.98;81.56;157276.41;5009234;28;20455;-76
2022/08/20 08:46:29;;;;;;;4.33;3.93;;;;;;;22.89;81.68;157254.16;5025555;28;20437;-76
2022/08/20 08:49:00;;;;;;;4.40;4.00;;;;;;;22.90;82.84;157256.75;5016151;28;20687;-76
2022/08/20 08:51:32;;;;;;;4.30;3.90;;;;;;;23.08;83.22;157301.22;5018341;28;20451;-75
2022/08/20 08:53:59;;;;;;;4.40;4.00;;;;;;;23.29;81.32;157357.41;5023275;28;20482;-75
2022/08/20 08:56:29;;;;;;;3.40;3.10;;;;;;;23.68;78.01;157458.09;5033745;28;20791;-76
2022/08/20 08:58:58;;;;;;;5.10;4.30;;;;;;;23.64;75.80;157447.66;5015275;28;20498;-75
2022/08/20 09:01:26;;;;;;;4.63;3.77;;;;;;;23.61;76.10;157441.13;5028255;28;20459;-77
2022/08/20 09:03:53;;;;;;;4.10;3.60;;;;;;;23.58;79.53;157431.97;5030893;28;20480;-75
2022/08/20 09:06:23;;;;;;;4.43;4.13;;;;;;;23.17;78.99;157324.69;5030910;28;20521;-75
2022/08/20 09:08:52;;;;;;;4.73;4.33;;;;;;;22.88;80.89;157251.53;5012340;28;20509;-75
2022/08/20 09:11:20;;;;;;;5.17;4.77;;;;;;;22.69;83.36;157201.88;5012424;28;20494;-75
2022/08/20 09:13:46;;;;;;;4.77;4.37;;;;;;;22.56;82.09;157167.88;5014308;28;20918;-75
2022/08/20 09:16:14;;;;;;;4.40;4.10;;;;;;;22.42;85.20;157131.31;5026101;28;20778;-76
2022/08/20 09:18:42;;;;;;;5.13;4.10;;;;;;;22.29;82.39;157097.38;5034094;28;20470;-76
2022/08/20 09:21:09;;;;;;;4.73;4.30;;;;;;;22.20;80.96;157075.16;5025362;28;20436;-75
2022/08/20 09:23:36;;;;;;;4.93;4.53;;;;;;;22.20;82.04;157073.84;5012651;28;20452;-76
2022/08/20 09:26:03;;;;;;;5.33;4.93;;;;;;;22.13;82.78;157055.56;5010584;28;20437;-76
2022/08/20 09:28:29;;;;;;;6.30;5.53;;;;;;;22.12;83.90;157054.25;5030481;28;20475;-75
2022/08/20 09:30:56;;;;;;;5.10;4.57;;;;;;;21.99;85.33;157019.00;5012079;28;20645;-85
2022/08/20 09:33:23;;;;;;;5.30;4.77;;;;;;;21.87;85.58;156987.69;5043648;28;20456;-85
2022/08/20 09:35:51;;;;;;;4.70;4.30;;;;;;;21.89;86.24;156992.88;5013632;28;20455;-85
2022/08/20 09:38:18;;;;;;;4.57;4.17;;;;;;;21.90;85.67;156995.47;5015542;28;20542;-85
2022/08/20 09:40:45;;;;;;;7.80;4.77;;;;;;;21.95;85.15;157009.84;5012308;28;20439;-85
2022/08/20 09:43:12;;;;;;;4.70;4.30;;;;;;;21.90;85.41;156995.47;5029116;28;20444;-85
2022/08/20 09:45:39;;;;;;;5.50;5.00;;;;;;;21.91;86.12;156999.41;5015932;28;20497;-85
2022/08/20 09:48:06;;;;;;;4.80;4.40;;;;;;;21.93;84.84;157004.63;5015077;28;20502;-85
2022/08/20 09:50:34;;;;;;;5.87;5.30;;;;;;;21.83;86.63;156978.47;5018481;28;20553;-85
2022/08/20 09:53:03;;;;;;;4.63;4.23;;;;;;;21.91;87.74;156999.41;5034797;28;20455;-85
2022/08/20 09:55:33;;;;;;;3.70;3.40;;;;;;;22.07;85.31;157039.88;5021450;28;20467;-85
2022/08/20 09:58:01;;;;;;;8.10;3.30;;;;;;;22.25;80.97;157088.22;4999779;28;20433;-85
2022/08/20 10:00:28;;;;;;;3.73;3.40;;;;;;;22.19;82.74;157071.22;4996136;28;20491;-85
2022/08/20 10:02:54;;;;;;;3.90;2.87;;;;;;;22.20;84.84;157073.84;4996735;28;20446;-85
2022/08/20 10:05:21;;;;;;;3.00;2.63;;;;;;;22.24;80.92;157084.31;4996663;28;20554;-85
2022/08/20 10:07:48;;;;;;;3.00;2.70;;;;;;;22.26;80.97;157089.53;5010281;28;20523;-85
2022/08/20 10:10:16;;;;;;;2.60;2.40;;;;;;;22.34;79.27;157110.44;5013872;28;20515;-85
2022/08/20 10:12:43;;;;;;;2.83;2.63;;;;;;;22.46;79.51;157141.75;5003253;28;20469;-85
2022/08/20 10:15:10;;;;;;;3.70;2.90;;;;;;;22.56;80.37;157167.88;4985397;28;20526;-85
2022/08/20 10:17:39;;;;;;;3.07;2.77;;;;;;;22.67;82.35;157196.66;4991628;28;20458;-85
2022/08/20 10:20:08;;;;;;;2.67;2.47;;;;;;;22.65;79.99;157191.47;5015402;28;20491;-85
2022/08/20 10:22:35;;;;;;;2.30;2.10;;;;;;;22.65;82.34;157191.47;5008605;28;20788;-85
2022/08/20 10:25:02;;;;;;;3.10;2.07;;;;;;;22.73;79.90;157212.34;5013937;28;20554;-85
2022/08/20 10:27:30;;;;;;;2.20;2.00;;;;;;;22.83;77.45;157238.47;5012639;28;20563;-85
2022/08/20 10:29:57;;;;;;;4.37;1.93;;;;;;;22.85;78.38;157243.69;5012483;28;20472;-85
2022/08/20 10:32:23;;;;;;;3.53;2.17;;;;;;;23.16;75.94;157322.13;5005215;28;20478;-85
2022/08/20 10:34:50;;;;;;;2.77;2.20;;;;;;;23.25;78.49;157345.63;5016013;28;20464;-85
2022/08/20 10:37:19;;;;;;;3.03;2.73;;;;;;;23.36;77.13;157374.38;5016187;28;20547;-85
2022/08/20 10:39:46;;;;;;;3.23;2.60;;;;;;;23.34;75.79;157369.16;5014606;28;20425;-85
2022/08/20 10:42:13;;;;;;;2.77;2.40;;;;;;;23.29;80.78;157357.41;5014628;28;20650;-85
2022/08/20 10:44:41;;;;;;;2.10;1.90;;;;;;;23.15;75.57;157319.47;5015915;28;20513;-85
2022/08/20 10:47:16;;;;;;;2.43;2.23;;;;;;;23.11;78.45;157309.06;5033327;28;20531;-85
2022/08/20 10:49:43;;;;;;;1.80;1.70;;;;;;;23.03;78.48;157289.47;5032243;28;20475;-85
2022/08/20 10:52:10;;;;;;;3.70;1.93;;;;;;;22.90;77.89;157255.50;5013386;28;20453;-85
2022/08/20 10:54:40;;;;;;;2.67;1.90;;;;;;;22.87;79.33;157248.97;5020602;28;20489;-85
2022/08/20 10:57:06;;;;;;;1.10;0.80;;;;;;;22.87;78.88;157248.97;5022767;28;20851;-85
2022/08/20 10:59:38;;;;;;;1.30;1.00;;;;;;;22.87;78.14;157247.66;5045215;28;20455;-85
2022/08/20 11:02:06;;;;;;;1.10;0.80;;;;;;;22.91;79.31;157258.06;5035442;28;20514;-85
2022/08/20 11:04:33;;;;;;;1.30;0.77;;;;;;;22.86;79.26;157246.31;5026398;28;20463;-85
2022/08/20 11:07:11;;;;;;;1.10;0.90;;;;;;;22.79;78.69;157226.75;5033346;28;20437;-85
2022/08/20 11:09:37;;;;;;;2.23;1.40;;;;;;;22.78;79.47;157225.41;5032804;28;20479;-85
2022/08/20 11:12:05;;;;;;;1.50;1.30;;;;;;;22.72;80.15;157209.72;5033252;28;20527;-85
2022/08/20 11:14:32;;;;;;;1.20;1.10;;;;;;;22.70;83.33;157203.19;5016446;28;20436;-85
2022/08/20 11:16:59;;;;;;;1.40;1.30;;;;;;;22.61;79.55;157180.94;5018950;28;20525;-85
2022/08/20 11:19:27;;;;;;;1.30;1.20;;;;;;;22.55;77.38;157165.28;5051732;28;20479;-85
2022/08/20 11:21:54;;;;;;;1.33;1.20;;;;;;;22.53;78.88;157160.03;5052408;28;20428;-85
2022/08/20 11:24:21;;;;;;;1.57;1.10;;;;;;;22.51;81.77;157154.81;5051849;28;20447;-85
2022/08/20 11:26:49;;;;;;;1.43;1.10;;;;;;;22.58;82.54;157173.13;5017314;28;20539;-85
2022/08/20 11:29:16;;;;;;;3.80;1.20;;;;;;;22.58;81.82;157173.13;5023610;28;20475;-85
2022/08/20 11:31:43;;;;;;;1.53;1.03;;;;;;;22.57;78.04;157170.50;5047340;28;20446;-85